Time;durP1;ratioP1;P1;durP2;ratioP2;P2;SDS_P1;SDS_P2;PMS_P1;PMS_P2;Temp;Humidity;BMP_temperature;BMP_pressure;BME280_temperature;BME280_humidity;BME280_pressure;Samples;Min_cycle;Max_cycle;Signal;HPM_P1;HPM_P2
2022/02/05 07:02:27;;;;;;;21.40;2.25;;;;;;;;;;4978846;23;20044;-87
2022/02/05 07:04:53;;;;;;;19.88;3.53;;;;;;;;;;4911335;29;20040;-86
2022/02/05 07:07:20;;;;;;;18.77;2.22;;;;;;;;;;4912714;29;20048;-87
2022/02/05 07:09:47;;;;;;;23.40;2.55;;;;;;;;;;4925343;29;20048;-87
2022/02/05 07:12:14;;;;;;;28.38;2.47;;;;;;;;;;4914002;29;20058;-86
2022/02/05 07:17:23;;;;;;;16.20;1.80;;;;;;;;;;4912683;29;20048;-86
2022/02/05 07:22:17;;;;;;;20.08;2.20;;;;;;;;;;4907918;29;20040;-86
2022/02/05 07:25:00;;;;;;;33.10;2.67;;;;;;;;;;4909565;29;20108;-85
2022/02/05 07:30:14;;;;;;;19.13;2.08;;;;;;;;;;4908264;29;20569;-86
2022/02/05 07:32:54;;;;;;;22.50;2.83;;;;;;;;;;4897041;29;20501;-86
2022/02/05 07:35:21;;;;;;;21.90;2.50;;;;;;;;;;4906113;29;20055;-87
2022/02/05 07:37:52;;;;;;;21.50;2.45;;;;;;;;;;4912118;29;20063;-87
2022/02/05 07:40:19;;;;;;;25.27;2.05;;;;;;;;;;4909921;29;20589;-87
2022/02/05 07:42:46;;;;;;;22.90;3.20;;;;;;;;;;4911722;29;20100;-87
2022/02/05 07:45:12;;;;;;;18.38;2.08;;;;;;;;;;4913578;29;20056;-87
2022/02/05 07:47:39;;;;;;;25.40;2.85;;;;;;;;;;4911449;29;20108;-86
2022/02/05 07:50:06;;;;;;;19.05;4.13;;;;;;;;;;4911093;29;20089;-86
2022/02/05 07:52:33;;;;;;;16.77;4.07;;;;;;;;;;4910808;29;20116;-87
2022/02/05 07:55:00;;;;;;;17.48;4.22;;;;;;;;;;4915349;29;20048;-86
2022/02/05 07:57:30;;;;;;;17.80;3.20;;;;;;;;;;4912025;29;20105;-87
2022/02/05 07:59:56;;;;;;;16.05;3.17;;;;;;;;;;4912211;29;20048;-86
2022/02/05 08:02:23;;;;;;;29.85;3.90;;;;;;;;;;4928405;29;20131;-84
2022/02/05 08:04:50;;;;;;;19.05;3.10;;;;;;;;;;4925530;29;20513;-85
2022/02/05 08:07:17;;;;;;;24.77;3.35;;;;;;;;;;4915216;29;20047;-84
2022/02/05 08:09:58;;;;;;;16.50;2.53;;;;;;;;;;4927537;29;20055;-85
2022/02/05 08:12:26;;;;;;;15.88;2.63;;;;;;;;;;4912064;29;20443;-85
2022/02/05 08:14:55;;;;;;;23.23;3.50;;;;;;;;;;4913526;29;20059;-85
2022/02/05 08:17:28;;;;;;;23.48;2.53;;;;;;;;;;4914189;29;20115;-86
2022/02/05 08:19:55;;;;;;;21.80;3.72;;;;;;;;;;4913114;29;20040;-85
2022/02/05 08:22:26;;;;;;;26.88;2.60;;;;;;;;;;4914500;29;20048;-85
2022/02/05 08:24:52;;;;;;;16.38;2.38;;;;;;;;;;4914053;29;20045;-86
2022/02/05 08:27:19;;;;;;;25.63;3.65;;;;;;;;;;4914986;29;20108;-84
2022/02/05 08:29:54;;;;;;;22.45;2.55;;;;;;;;;;4915341;29;20111;-85
2022/02/05 08:32:27;;;;;;;17.20;2.53;;;;;;;;;;4912048;29;20516;-86
2022/02/05 08:34:57;;;;;;;16.70;2.45;;;;;;;;;;4914634;29;20469;-85
2022/02/05 08:37:24;;;;;;;24.05;3.25;;;;;;;;;;4916614;29;20052;-86
2022/02/05 08:39:50;;;;;;;22.48;2.40;;;;;;;;;;4914962;29;20051;-88
2022/02/05 08:42:17;;;;;;;15.68;2.47;;;;;;;;;;4912343;29;20771;-87
2022/02/05 08:44:44;;;;;;;22.45;2.85;;;;;;;;;;4915712;29;20052;-87
2022/02/05 08:47:11;;;;;;;19.25;2.33;;;;;;;;;;4913940;29;20181;-86
2022/02/05 08:49:37;;;;;;;26.40;2.67;;;;;;;;;;4914645;29;20063;-85
2022/02/05 08:52:07;;;;;;;19.25;2.47;;;;;;;;;;4913692;29;20064;-85
2022/02/05 08:54:36;;;;;;;20.88;2.58;;;;;;;;;;4916437;29;20059;-85
2022/02/05 08:57:06;;;;;;;12.23;2.00;;;;;;;;;;4914881;29;20401;-84
2022/02/05 08:59:44;;;;;;;14.73;2.00;;;;;;;;;;4914046;29;20111;-84
2022/02/05 09:02:26;;;;;;;;;;;;;;;;;;4913442;29;20702;-85
2022/02/05 09:07:19;;;;;;;14.43;2.25;;;;;;;;;;4914361;29;20040;-84
2022/02/05 09:10:02;;;;;;;18.88;2.40;;;;;;;;;;4926032;29;20456;-85
2022/02/05 09:14:56;;;;;;;25.90;3.35;;;;;;;;;;4914776;29;20111;-85
2022/02/05 09:17:23;;;;;;;17.83;2.53;;;;;;;;;;4912779;29;20402;-85
2022/02/05 09:19:50;;;;;;;23.60;2.42;;;;;;;;;;4912310;29;20124;-85
2022/02/05 09:22:17;;;;;;;20.20;3.22;;;;;;;;;;4922169;29;20052;-87
2022/02/05 09:24:43;;;;;;;17.08;2.00;;;;;;;;;;4917502;29;20044;-87
2022/02/05 09:27:12;;;;;;;26.13;2.58;;;;;;;;;;4914140;29;20052;-87
2022/02/05 09:29:57;;;;;;;22.77;2.97;;;;;;;;;;4915021;29;20055;-87
2022/02/05 09:32:24;;;;;;;16.73;2.15;;;;;;;;;;4913446;29;20492;-86
2022/02/05 09:34:51;;;;;;;22.90;2.90;;;;;;;;;;4914730;29;20574;-86
2022/02/05 09:37:17;;;;;;;16.98;2.40;;;;;;;;;;4914383;29;20044;-87
2022/02/05 09:39:44;;;;;;;26.02;3.03;;;;;;;;;;4914155;29;20052;-85
2022/02/05 09:42:12;;;;;;;16.58;2.33;;;;;;;;;;4913208;29;20056;-85
2022/02/05 09:44:39;;;;;;;20.67;2.13;;;;;;;;;;4912882;29;20107;-85
2022/02/05 09:47:06;;;;;;;21.27;3.28;;;;;;;;;;4911801;29;20083;-83
2022/02/05 09:49:33;;;;;;;15.82;2.03;;;;;;;;;;4912075;29;20056;-84
2022/02/05 09:52:08;;;;;;;21.15;2.63;;;;;;;;;;4912152;29;20048;-85
2022/02/05 09:54:36;;;;;;;20.58;2.45;;;;;;;;;;4914928;29;20056;-84
2022/02/05 09:57:04;;;;;;;17.30;1.80;;;;;;;;;;4913710;29;20131;-85
2022/02/05 09:59:40;;;;;;;14.55;2.00;;;;;;;;;;4911268;29;20576;-85
2022/02/05 10:02:19;;;;;;;19.58;2.35;;;;;;;;;;4910919;29;20493;-84
2022/02/05 10:04:57;;;;;;;9.55;1.52;;;;;;;;;;4913309;29;20088;-84
2022/02/05 10:08:06;;;;;;;10.05;1.50;;;;;;;;;;4911286;29;20076;-84
2022/02/05 10:10:46;;;;;;;19.92;1.98;;;;;;;;;;4901112;29;20100;-84
2022/02/05 10:13:18;;;;;;;13.48;2.05;;;;;;;;;;4911001;29;20051;-85
2022/02/05 10:15:52;;;;;;;10.40;1.65;;;;;;;;;;4913097;29;20531;-84
2022/02/05 10:18:30;;;;;;;12.75;1.98;;;;;;;;;;4913139;29;20051;-84
2022/02/05 10:20:59;;;;;;;11.02;1.83;;;;;;;;;;4913408;29;20099;-84
2022/02/05 10:23:27;;;;;;;14.50;1.77;;;;;;;;;;4910328;29;20442;-83
2022/02/05 10:25:55;;;;;;;13.53;1.87;;;;;;;;;;4911061;29;20083;-84
2022/02/05 10:28:22;;;;;;;13.80;2.22;;;;;;;;;;4910333;29;20040;-85
2022/02/05 10:30:53;;;;;;;18.27;2.03;;;;;;;;;;4912554;29;20055;-85
2022/02/05 10:33:26;;;;;;;11.00;2.08;;;;;;;;;;4913314;29;20145;-84
2022/02/05 10:36:26;;;;;;;10.25;1.83;;;;;;;;;;4912063;29;20060;-86
2022/02/05 10:44:34;;;;;;;15.32;2.30;;;;;;;;;;4912338;29;20103;-85
2022/02/05 10:47:01;;;;;;;15.45;1.98;;;;;;;;;;4910820;29;20107;-84
2022/02/05 10:49:47;;;;;;;16.33;2.40;;;;;;;;;;4907266;29;20040;-85
2022/02/05 10:52:35;;;;;;;15.82;1.73;;;;;;;;;;4899044;29;20556;-85
2022/02/05 10:57:39;;;;;;;11.65;2.10;;;;;;;;;;4912910;29;20394;-84
2022/02/05 11:05:41;;;;;;;14.00;1.60;;;;;;;;;;4909098;29;20422;-84
2022/02/05 11:08:09;;;;;;;15.73;2.45;;;;;;;;;;4910367;29;20150;-83
2022/02/05 11:16:16;;;;;;;;;;;;;;;;;;4908365;29;20067;-85
2022/02/05 11:18:54;;;;;;;18.08;2.08;;;;;;;;;;4908030;29;19927;-85
2022/02/05 11:21:43;;;;;;;20.38;2.65;;;;;;;;;;4906404;29;20056;-85
2022/02/05 11:24:12;;;;;;;15.23;2.15;;;;;;;;;;4907511;29;20052;-85
2022/02/05 11:26:39;;;;;;;;;;;;;;;;;;4909401;29;20059;-85
2022/02/05 11:29:06;;;;;;;15.75;2.08;;;;;;;;;;4908928;29;19930;-84
2022/02/05 11:31:38;;;;;;;13.18;1.88;;;;;;;;;;4908890;29;20056;-84
2022/02/05 11:34:23;;;;;;;21.35;2.92;;;;;;;;;;4904771;29;20412;-84
2022/02/05 11:36:57;;;;;;;16.70;3.22;;;;;;;;;;4910453;29;20106;-85
2022/02/05 11:39:23;;;;;;;19.63;3.83;;;;;;;;;;4912127;29;20052;-84
2022/02/05 11:41:51;;;;;;;17.80;3.80;;;;;;;;;;4913159;29;20123;-85
2022/02/05 11:44:37;;;;;;;19.00;3.95;;;;;;;;;;4912010;29;20055;-84
2022/02/05 11:47:04;;;;;;;15.80;2.78;;;;;;;;;;4912415;29;20048;-85
2022/02/05 11:49:52;;;;;;;11.80;3.85;;;;;;;;;;4912986;29;20068;-84
2022/02/05 11:52:42;;;;;;;15.88;3.95;;;;;;;;;;4912423;29;20144;-86
2022/02/05 11:55:27;;;;;;;25.95;6.68;;;;;;;;;;4905090;29;20048;-86
2022/02/05 11:57:55;;;;;;;27.67;10.25;;;;;;;;;;4912737;29;20612;-84
2022/02/05 12:00:38;;;;;;;29.83;10.25;;;;;;;;;;4913059;29;20469;-84
2022/02/05 12:03:29;;;;;;;27.85;9.07;;;;;;;;;;4926679;29;20525;-84
2022/02/05 12:06:05;;;;;;;22.75;5.93;;;;;;;;;;4912992;29;20059;-86
2022/02/05 12:08:42;;;;;;;17.02;4.40;;;;;;;;;;4915203;29;20103;-85
2022/02/05 12:11:33;;;;;;;16.63;3.50;;;;;;;;;;4910829;29;20076;-85
2022/02/05 12:14:18;;;;;;;16.20;2.92;;;;;;;;;;4913006;29;20048;-84
2022/02/05 12:17:05;;;;;;;13.10;2.20;;;;;;;;;;4911173;29;20059;-84
2022/02/05 12:19:33;;;;;;;10.85;2.53;;;;;;;;;;4912578;29;20055;-84
2022/02/05 12:22:11;;;;;;;;;;;;;;;;;;4911473;29;20052;-84
2022/02/05 12:25:20;;;;;;;14.32;1.95;;;;;;;;;;4912199;29;19934;-85
2022/02/05 12:27:47;;;;;;;;;;;;;;;;;;4911751;29;20052;-84
2022/02/05 12:30:40;;;;;;;16.00;2.20;;;;;;;;;;4914457;29;20458;-84
2022/02/05 12:33:08;;;;;;;14.43;1.90;;;;;;;;;;4915585;29;20052;-84
2022/02/05 12:35:37;;;;;;;15.35;2.00;;;;;;;;;;4910501;29;20565;-84
2022/02/05 12:38:06;;;;;;;12.65;1.58;;;;;;;;;;4912091;29;20052;-86
2022/02/05 12:40:44;;;;;;;8.70;1.77;;;;;;;;;;4909430;29;20048;-85
2022/02/05 12:43:13;;;;;;;15.25;1.67;;;;;;;;;;4898740;29;20048;-85
2022/02/05 12:45:50;;;;;;;16.02;1.85;;;;;;;;;;4915301;29;20052;-85
2022/02/05 12:48:19;;;;;;;12.45;1.80;;;;;;;;;;4913667;29;20104;-86
2022/02/05 12:50:48;;;;;;;;;;;;;;;;;;4909181;29;20099;-85
2022/02/05 12:53:16;;;;;;;14.55;1.42;;;;;;;;;;4908765;29;20056;-85
2022/02/05 12:55:45;;;;;;;18.47;3.33;;;;;;;;;;4910104;29;20056;-86
2022/02/05 12:58:17;;;;;;;12.15;1.63;;;;;;;;;;4911353;29;20510;-85
2022/02/05 13:00:44;;;;;;;14.07;2.22;;;;;;;;;;4914698;29;20056;-85
2022/02/05 13:03:26;;;;;;;13.38;2.67;;;;;;;;;;4915506;29;20076;-85
2022/02/05 13:05:57;;;;;;;11.25;1.70;;;;;;;;;;4912454;29;20064;-85
2022/02/05 13:08:25;;;;;;;14.35;1.88;;;;;;;;;;4917404;29;20488;-85
2022/02/05 13:10:52;;;;;;;;;;;;;;;;;;4921151;29;20048;-85
2022/02/05 13:13:22;;;;;;;13.05;1.60;;;;;;;;;;4912528;29;20468;-84
2022/02/05 13:16:08;;;;;;;14.02;2.03;;;;;;;;;;4898087;29;20489;-84
2022/02/05 13:18:51;;;;;;;15.88;1.92;;;;;;;;;;4915445;29;20048;-85
2022/02/05 13:27:09;;;;;;;10.85;1.60;;;;;;;;;;4916792;29;20047;-90
2022/02/05 13:29:55;;;;;;;14.10;1.83;;;;;;;;;;4913886;29;20135;-87
2022/02/05 13:35:09;;;;;;;8.15;1.27;;;;;;;;;;4915980;29;20048;-88
2022/02/05 13:37:49;;;;;;;20.45;1.83;;;;;;;;;;4912892;29;20091;-88
2022/02/05 13:40:22;;;;;;;9.25;1.80;;;;;;;;;;4911425;29;20100;-88
2022/02/05 13:42:51;;;;;;;12.60;2.35;;;;;;;;;;4916654;29;20178;-88
2022/02/05 13:45:24;;;;;;;;;;;;;;;;;;4911002;29;20051;-87
2022/02/05 13:47:53;;;;;;;14.13;2.22;;;;;;;;;;4917101;29;19922;-86
2022/02/05 13:50:32;;;;;;;;;;;;;;;;;;4916703;29;20050;-89
2022/02/05 13:53:02;;;;;;;13.32;2.42;;;;;;;;;;4906809;29;19965;-89
2022/02/05 13:55:31;;;;;;;9.48;2.08;;;;;;;;;;4897945;29;20049;-89
2022/02/05 13:58:08;;;;;;;10.45;1.80;;;;;;;;;;4917380;29;20052;-90
2022/02/05 14:00:41;;;;;;;15.45;2.30;;;;;;;;;;4912889;29;20044;-87
2022/02/05 14:03:09;;;;;;;6.28;2.10;;;;;;;;;;4915337;29;20099;-86
2022/02/05 14:06:00;;;;;;;6.97;1.52;;;;;;;;;;4914428;29;20044;-87
2022/02/05 14:08:33;;;;;;;13.38;1.75;;;;;;;;;;4919427;29;20390;-87
2022/02/05 14:11:05;;;;;;;11.80;2.78;;;;;;;;;;4918654;29;20827;-88
2022/02/05 14:13:32;;;;;;;10.43;1.50;;;;;;;;;;4912170;29;20099;-87
2022/02/05 14:16:01;;;;;;;11.63;2.60;;;;;;;;;;4896049;29;20096;-86
2022/02/05 14:18:30;;;;;;;14.45;3.00;;;;;;;;;;4911120;29;20048;-88
2022/02/05 14:20:59;;;;;;;13.35;3.13;;;;;;;;;;4913436;29;20044;-87
2022/02/05 14:23:30;;;;;;;12.18;2.08;;;;;;;;;;4930428;29;20051;-88
2022/02/05 14:26:06;;;;;;;10.80;2.33;;;;;;;;;;4927317;29;20071;-87
2022/02/05 14:28:47;;;;;;;6.53;0.98;;;;;;;;;;4913494;29;20115;-87
2022/02/05 14:31:20;;;;;;;9.30;0.95;;;;;;;;;;4913966;29;20055;-88
2022/02/05 14:34:42;;;;;;;10.30;1.40;;;;;;;;;;4912941;29;20048;-86
2022/02/05 14:42:06;;;;;;;13.48;1.23;;;;;;;;;;4896048;29;20052;-88
2022/02/05 14:44:33;;;;;;;10.20;1.87;;;;;;;;;;4911628;29;20060;-87
2022/02/05 14:47:00;;;;;;;12.18;1.63;;;;;;;;;;4903661;29;20053;-87
2022/02/05 14:49:27;;;;;;;9.23;1.08;;;;;;;;;;4901621;29;20051;-87
2022/02/05 14:51:56;;;;;;;9.57;2.03;;;;;;;;;;4912366;29;20044;-87
2022/02/05 14:54:23;;;;;;;10.75;1.35;;;;;;;;;;4894821;29;20052;-88
2022/02/05 14:56:51;;;;;;;11.85;2.03;;;;;;;;;;4915765;29;20411;-88
2022/02/05 14:59:17;;;;;;;10.20;1.80;;;;;;;;;;4914923;29;20080;-86
2022/02/05 15:01:44;;;;;;;16.08;4.38;;;;;;;;;;4910283;29;20056;-88
2022/02/05 15:04:10;;;;;;;10.20;2.08;;;;;;;;;;4914665;29;20517;-88
2022/02/05 15:06:38;;;;;;;9.93;1.70;;;;;;;;;;4914566;29;20059;-87
2022/02/05 15:09:06;;;;;;;11.65;1.52;;;;;;;;;;4920297;29;20060;-85
2022/02/05 15:11:34;;;;;;;10.55;1.75;;;;;;;;;;4916244;29;20513;-87
2022/02/05 15:14:02;;;;;;;9.55;1.25;;;;;;;;;;4914603;29;20071;-87
2022/02/05 15:16:30;;;;;;;;;;;;;;;;;;4907475;29;20494;-88
2022/02/05 15:19:01;;;;;;;10.43;1.83;;;;;;;;;;4898097;29;20300;-86
2022/02/05 15:21:33;;;;;;;8.27;1.52;;;;;;;;;;4913101;29;20048;-87
2022/02/05 15:24:00;;;;;;;9.85;1.58;;;;;;;;;;4913001;29;20111;-87
2022/02/05 15:26:31;;;;;;;12.52;1.70;;;;;;;;;;4899064;29;20115;-87
2022/02/05 15:28:58;;;;;;;10.25;1.40;;;;;;;;;;4899214;29;20100;-87
2022/02/05 15:31:25;;;;;;;8.85;1.33;;;;;;;;;;4912510;29;20084;-88
2022/02/05 15:33:55;;;;;;;9.85;1.65;;;;;;;;;;4914247;29;20055;-87
2022/02/05 15:36:29;;;;;;;8.23;1.50;;;;;;;;;;4914134;29;20044;-88
2022/02/05 15:44:31;;;;;;;11.05;1.98;;;;;;;;;;4910451;29;20123;-88
2022/02/05 15:46:57;;;;;;;6.25;1.38;;;;;;;;;;4915023;29;20052;-86
2022/02/05 15:49:24;;;;;;;13.98;1.98;;;;;;;;;;4912698;29;20453;-88
2022/02/05 15:51:52;;;;;;;9.57;1.47;;;;;;;;;;4911660;29;20203;-87
2022/02/05 15:54:22;;;;;;;8.48;1.77;;;;;;;;;;4908454;29;20292;-87
2022/02/05 15:57:16;;;;;;;6.88;1.33;;;;;;;;;;4911699;29;20437;-87
2022/02/05 16:02:10;;;;;;;7.40;1.55;;;;;;;;;;4912836;29;20477;-88
2022/02/05 16:04:37;;;;;;;9.73;1.63;;;;;;;;;;4912944;29;20048;-87
2022/02/05 16:07:04;;;;;;;8.40;1.38;;;;;;;;;;4918157;28;20099;-87
2022/02/05 16:09:31;;;;;;;14.63;2.92;;;;;;;;;;4932983;28;20080;-87
2022/02/05 16:12:03;;;;;;;10.15;2.28;;;;;;;;;;4907216;29;20140;-88
2022/02/05 16:14:30;;;;;;;9.65;2.72;;;;;;;;;;4906204;29;20044;-85
2022/02/05 16:16:57;;;;;;;9.07;1.52;;;;;;;;;;4903508;29;20053;-87
2022/02/05 16:19:23;;;;;;;10.75;1.90;;;;;;;;;;4899656;29;20060;-86
2022/02/05 16:21:50;;;;;;;12.80;1.77;;;;;;;;;;4912277;29;20048;-87
2022/02/05 16:24:17;;;;;;;8.93;1.90;;;;;;;;;;4916528;29;20044;-87
2022/02/05 16:26:43;;;;;;;9.25;1.45;;;;;;;;;;4915892;29;20055;-88
2022/02/05 16:29:11;;;;;;;10.15;2.15;;;;;;;;;;4917466;29;20044;-88
2022/02/05 16:31:39;;;;;;;17.30;2.35;;;;;;;;;;4913832;29;20063;-88
2022/02/05 16:34:11;;;;;;;11.50;1.70;;;;;;;;;;4916631;29;20044;-88
2022/02/05 16:36:42;;;;;;;17.77;2.20;;;;;;;;;;4917472;29;20055;-89
2022/02/05 16:39:09;;;;;;;13.82;1.85;;;;;;;;;;4899217;29;20495;-87
2022/02/05 16:41:35;;;;;;;9.32;1.65;;;;;;;;;;4912962;29;20052;-88
2022/02/05 16:44:03;;;;;;;14.27;2.30;;;;;;;;;;4909573;29;20037;-88
2022/02/05 16:46:32;;;;;;;10.82;1.80;;;;;;;;;;4904781;29;20417;-89
2022/02/05 16:48:59;;;;;;;15.13;2.38;;;;;;;;;;4903891;29;20044;-89
2022/02/05 16:51:30;;;;;;;13.55;1.85;;;;;;;;;;4915981;29;20048;-88
2022/02/05 16:53:57;;;;;;;13.43;2.20;;;;;;;;;;4915901;29;20051;-89
2022/02/05 16:56:28;;;;;;;16.00;3.20;;;;;;;;;;4910935;29;20056;-87
2022/02/05 16:58:55;;;;;;;18.85;7.28;;;;;;;;;;4911880;29;20052;-88
2022/02/05 17:01:24;;;;;;;14.07;2.70;;;;;;;;;;4911197;29;20060;-88
2022/02/05 17:03:50;;;;;;;19.38;3.85;;;;;;;;;;4899679;29;20128;-87
2022/02/05 17:06:17;;;;;;;25.48;3.30;;;;;;;;;;4913815;29;20520;-87
2022/02/05 17:08:44;;;;;;;17.30;2.00;;;;;;;;;;4925211;29;20111;-89
2022/02/05 17:11:12;;;;;;;15.82;3.50;;;;;;;;;;4922134;29;20098;-87
2022/02/05 17:13:41;;;;;;;18.38;3.60;;;;;;;;;;4917099;29;20055;-90
2022/02/05 17:16:19;;;;;;;39.80;8.70;;;;;;;;;;4914998;29;20424;-90
2022/02/05 17:18:45;;;;;;;18.55;4.78;;;;;;;;;;4913080;29;20052;-90
2022/02/05 17:21:12;;;;;;;13.20;2.50;;;;;;;;;;4914884;29;20052;-89
2022/02/05 17:23:40;;;;;;;14.77;1.92;;;;;;;;;;4914148;29;20058;-88
2022/02/05 17:26:13;;;;;;;11.27;1.88;;;;;;;;;;4913217;29;20055;-90
2022/02/05 17:28:41;;;;;;;10.93;1.90;;;;;;;;;;4908806;29;20048;-90
2022/02/05 17:31:08;;;;;;;12.40;2.42;;;;;;;;;;4898301;29;20627;-89
2022/02/05 17:33:35;;;;;;;18.55;2.88;;;;;;;;;;4913971;29;20048;-89
2022/02/05 17:36:04;;;;;;;20.85;4.75;;;;;;;;;;4914626;29;20052;-90
2022/02/05 17:38:33;;;;;;;;;;;;;;;;;;4909953;29;20060;-90
2022/02/05 17:41:01;;;;;;;11.38;2.60;;;;;;;;;;4915043;29;20353;-90
2022/02/05 17:43:33;;;;;;;15.93;2.83;;;;;;;;;;4909417;29;20044;-88
2022/02/05 17:46:02;;;;;;;13.50;2.67;;;;;;;;;;4914433;29;20075;-88
2022/02/05 17:48:29;;;;;;;15.45;3.83;;;;;;;;;;4914048;29;20059;-90
2022/02/05 17:51:00;;;;;;;22.38;5.95;;;;;;;;;;4915233;29;20048;-89
2022/02/05 17:53:27;;;;;;;16.20;3.90;;;;;;;;;;4913982;29;20056;-89
2022/02/05 17:55:54;;;;;;;13.32;4.13;;;;;;;;;;4912211;29;20089;-90
2022/02/05 17:58:22;;;;;;;17.88;3.58;;;;;;;;;;4912538;29;20055;-89
2022/02/05 18:00:50;;;;;;;13.67;3.37;;;;;;;;;;4914376;29;20050;-89
2022/02/05 18:03:18;;;;;;;19.52;4.80;;;;;;;;;;4914156;29;20048;-89
2022/02/05 18:05:52;;;;;;;16.17;4.38;;;;;;;;;;4912647;29;20044;-89
2022/02/05 18:08:33;;;;;;;7.90;2.80;;;;;;;;;;4914404;29;20055;-89
2022/02/05 18:11:36;;;;;;;11.60;2.90;;;;;;;;;;4913802;29;20062;-89
2022/02/05 18:16:23;;;;;;;9.98;2.15;;;;;;;;;;4913743;29;20465;-89
2022/02/05 18:18:50;;;;;;;10.80;2.35;;;;;;;;;;4912840;29;20051;-89
2022/02/05 18:21:18;;;;;;;9.38;1.90;;;;;;;;;;4911824;29;20064;-87
2022/02/05 18:23:47;;;;;;;12.48;2.63;;;;;;;;;;4911560;29;20509;-89
2022/02/05 18:26:14;;;;;;;;;;;;;;;;;;4912277;29;20048;-89
2022/02/05 18:28:42;;;;;;;9.32;1.60;;;;;;;;;;4913450;29;19927;-90
2022/02/05 18:31:11;;;;;;;11.85;2.80;;;;;;;;;;4912457;29;20048;-89
2022/02/05 18:33:39;;;;;;;22.42;12.30;;;;;;;;;;4913098;29;20064;-87
2022/02/05 18:36:06;;;;;;;10.18;3.95;;;;;;;;;;4911564;29;20520;-90
2022/02/05 18:38:33;;;;;;;7.60;1.60;;;;;;;;;;4912254;29;20048;-90
2022/02/05 18:41:00;;;;;;;9.88;3.00;;;;;;;;;;4912345;29;20082;-88
2022/02/05 18:43:29;;;;;;;7.05;2.35;;;;;;;;;;4913274;29;20048;-90
2022/02/05 18:45:57;;;;;;;7.60;1.38;;;;;;;;;;4913557;29;20059;-90
2022/02/05 18:48:23;;;;;;;9.80;3.70;;;;;;;;;;4912250;29;20056;-91
2022/02/05 18:50:51;;;;;;;6.90;3.28;;;;;;;;;;4912580;29;20052;-90
2022/02/05 18:53:18;;;;;;;10.85;5.10;;;;;;;;;;4912443;29;20564;-90
2022/02/05 18:55:59;;;;;;;17.08;6.70;;;;;;;;;;4912221;29;20051;-90
2022/02/05 18:58:26;;;;;;;16.50;8.45;;;;;;;;;;4921639;29;20055;-90
2022/02/05 19:01:24;;;;;;;12.20;5.60;;;;;;;;;;4912309;29;20509;-90
2022/02/05 19:04:20;;;;;;;8.05;3.15;;;;;;;;;;4911566;29;20144;-90
2022/02/05 19:20:20;;;;;;;14.23;3.28;;;;;;;;;;4872552;29;20185;-90
2022/02/05 19:22:47;;;;;;;12.25;2.42;;;;;;;;;;4869260;29;20046;-90
2022/02/05 19:25:14;;;;;;;13.40;3.03;;;;;;;;;;4871249;29;20052;-91
2022/02/05 19:27:41;;;;;;;15.23;3.85;;;;;;;;;;4870998;29;20522;-91
2022/02/05 19:30:08;;;;;;;13.07;2.28;;;;;;;;;;4865552;29;20554;-90
2022/02/05 19:32:35;;;;;;;15.55;3.33;;;;;;;;;;4862588;29;20057;-90
2022/02/05 19:35:03;;;;;;;15.00;3.97;;;;;;;;;;4862189;29;20121;-89
2022/02/05 19:37:32;;;;;;;15.48;3.17;;;;;;;;;;4858440;29;20054;-89
2022/02/05 19:39:59;;;;;;;13.70;3.20;;;;;;;;;;4860730;29;20053;-88
2022/02/05 19:42:26;;;;;;;18.33;3.00;;;;;;;;;;4871715;29;20055;-88
2022/02/05 19:44:56;;;;;;;16.05;3.53;;;;;;;;;;4850650;29;20523;-88
2022/02/05 19:47:30;;;;;;;17.98;2.47;;;;;;;;;;4870438;29;20053;-89
2022/02/05 19:49:57;;;;;;;13.98;3.25;;;;;;;;;;4863356;29;20457;-89
2022/02/05 19:52:24;;;;;;;20.02;2.72;;;;;;;;;;4893212;29;20107;-88
2022/02/05 19:54:51;;;;;;;13.68;2.35;;;;;;;;;;4910785;29;20589;-89
2022/02/05 19:57:18;;;;;;;15.88;3.33;;;;;;;;;;4911830;29;20052;-88
2022/02/05 19:59:46;;;;;;;21.45;3.25;;;;;;;;;;4915417;29;20048;-89
2022/02/05 20:02:13;;;;;;;16.60;2.97;;;;;;;;;;4914984;29;20044;-88
2022/02/05 20:04:55;;;;;;;24.23;2.97;;;;;;;;;;4914874;29;20044;-89
2022/02/05 20:10:08;;;;;;;20.38;2.33;;;;;;;;;;4907522;29;20048;-89
2022/02/05 20:12:35;;;;;;;17.50;2.42;;;;;;;;;;4914767;29;20059;-89
2022/02/05 20:15:04;;;;;;;14.85;3.30;;;;;;;;;;4914067;29;20056;-88
2022/02/05 20:17:31;;;;;;;21.45;2.70;;;;;;;;;;4914076;29;20048;-87
2022/02/05 20:19:58;;;;;;;19.00;3.28;;;;;;;;;;4912566;29;20056;-88
2022/02/05 20:22:25;;;;;;;22.02;5.70;;;;;;;;;;4911690;29;20056;-87
2022/02/05 20:24:53;;;;;;;46.42;14.65;;;;;;;;;;4912400;29;20056;-88
2022/02/05 20:27:22;;;;;;;42.40;10.60;;;;;;;;;;4914228;29;20052;-91
2022/02/05 20:29:49;;;;;;;;;;;;;;;;;;4916862;29;20060;-90
2022/02/05 20:32:22;;;;;;;38.17;10.30;;;;;;;;;;4914525;29;19930;-90
2022/02/05 20:34:49;;;;;;;32.28;11.10;;;;;;;;;;4922640;29;20532;-89
2022/02/05 20:37:16;;;;;;;30.75;8.15;;;;;;;;;;4916141;29;20051;-90
2022/02/05 20:39:43;;;;;;;36.60;7.00;;;;;;;;;;4900282;29;20104;-90
2022/02/05 20:42:09;;;;;;;33.70;9.43;;;;;;;;;;4916221;29;20456;-91
2022/02/05 20:44:36;;;;;;;45.80;14.07;;;;;;;;;;4915294;29;20052;-93
2022/02/05 20:47:05;;;;;;;21.55;6.05;;;;;;;;;;4916157;29;20773;-90
2022/02/05 20:49:40;;;;;;;34.83;5.40;;;;;;;;;;4914310;29;20060;-89
2022/02/05 20:52:06;;;;;;;22.48;3.95;;;;;;;;;;4914056;29;20048;-90
2022/02/05 20:54:36;;;;;;;25.15;6.03;;;;;;;;;;4914969;29;20060;-90
2022/02/05 20:57:06;;;;;;;24.98;5.70;;;;;;;;;;4915091;29;20052;-89
2022/02/05 20:59:33;;;;;;;24.90;4.43;;;;;;;;;;4910535;29;20478;-89
2022/02/05 21:02:00;;;;;;;35.05;6.97;;;;;;;;;;4907801;29;20047;-90
2022/02/05 21:04:41;;;;;;;27.58;7.30;;;;;;;;;;4908702;29;20122;-89
2022/02/05 21:07:08;;;;;;;23.23;4.63;;;;;;;;;;4900193;29;20052;-90
2022/02/05 21:09:35;;;;;;;25.92;4.80;;;;;;;;;;4914949;29;20060;-89
2022/02/05 21:12:02;;;;;;;27.10;2.67;;;;;;;;;;4914922;29;20517;-89
2022/02/05 21:14:32;;;;;;;27.58;2.50;;;;;;;;;;4914135;29;20047;-89
2022/02/05 21:16:59;;;;;;;16.45;2.50;;;;;;;;;;4929169;29;20056;-90
2022/02/05 21:19:26;;;;;;;25.92;3.00;;;;;;;;;;4916263;29;20111;-90
2022/02/05 21:21:53;;;;;;;20.52;2.60;;;;;;;;;;4919592;29;20506;-90
2022/02/05 21:24:21;;;;;;;25.00;3.22;;;;;;;;;;4936552;29;20048;-90
2022/02/05 21:26:51;;;;;;;23.23;4.85;;;;;;;;;;4927492;29;20126;-89
2022/02/05 21:29:24;;;;;;;26.77;3.42;;;;;;;;;;4916994;29;20581;-91
2022/02/05 21:32:00;;;;;;;23.45;3.47;;;;;;;;;;4917521;29;20569;-91
2022/02/05 21:34:45;;;;;;;24.92;3.75;;;;;;;;;;4910549;29;20045;-90
2022/02/05 21:37:14;;;;;;;28.50;3.15;;;;;;;;;;4898807;29;20044;-88
2022/02/05 21:39:46;;;;;;;35.50;4.47;;;;;;;;;;4915258;29;20056;-88
2022/02/05 21:42:14;;;;;;;29.02;3.33;;;;;;;;;;4914274;29;20051;-90
2022/02/05 21:44:41;;;;;;;23.70;3.87;;;;;;;;;;4917631;29;20513;-90
2022/02/05 21:47:09;;;;;;;24.83;3.08;;;;;;;;;;4904876;29;20096;-90
2022/02/05 21:52:20;;;;;;;24.80;3.90;;;;;;;;;;4909289;29;20393;-90
2022/02/05 21:54:56;;;;;;;29.17;4.05;;;;;;;;;;4919417;29;20079;-91
2022/02/05 21:57:30;;;;;;;25.35;3.97;;;;;;;;;;4916817;29;20907;-91
2022/02/05 21:59:59;;;;;;;29.38;3.17;;;;;;;;;;4935661;28;20052;-90
2022/02/05 22:02:29;;;;;;;29.55;3.75;;;;;;;;;;4934719;29;20103;-88
2022/02/05 22:04:58;;;;;;;31.08;3.45;;;;;;;;;;4926406;29;20056;-91
2022/02/05 22:07:26;;;;;;;22.30;4.28;;;;;;;;;;4915834;29;20096;-89
2022/02/05 22:09:55;;;;;;;27.37;3.93;;;;;;;;;;4929809;29;20047;-90
2022/02/05 22:12:24;;;;;;;22.13;3.45;;;;;;;;;;4916545;29;20108;-87
2022/02/05 22:14:53;;;;;;;26.33;4.15;;;;;;;;;;4919322;29;20048;-90
2022/02/05 22:17:21;;;;;;;27.02;3.63;;;;;;;;;;4929956;29;20063;-87
2022/02/05 22:19:50;;;;;;;22.60;2.97;;;;;;;;;;4924979;29;20048;-88
2022/02/05 22:22:17;;;;;;;20.83;3.28;;;;;;;;;;4909294;29;20518;-88
2022/02/05 22:24:44;;;;;;;26.95;3.50;;;;;;;;;;4897994;29;20109;-90
2022/02/05 22:27:10;;;;;;;27.80;4.00;;;;;;;;;;4915939;29;20048;-88
2022/02/05 22:29:38;;;;;;;27.33;3.17;;;;;;;;;;4916647;29;20056;-89
2022/02/05 22:32:06;;;;;;;22.85;3.13;;;;;;;;;;4911655;29;20052;-87
2022/02/05 22:34:33;;;;;;;24.73;3.83;;;;;;;;;;4914955;29;20051;-89
2022/02/05 22:37:02;;;;;;;25.25;4.20;;;;;;;;;;4916026;29;20047;-88
2022/02/05 22:39:30;;;;;;;27.23;3.75;;;;;;;;;;4915513;29;20391;-90
2022/02/05 22:41:57;;;;;;;23.35;3.53;;;;;;;;;;4916067;29;20052;-89
2022/02/05 22:44:24;;;;;;;31.73;3.72;;;;;;;;;;4915433;29;20051;-88
2022/02/05 22:46:51;;;;;;;28.88;4.65;;;;;;;;;;4914683;29;20139;-90
2022/02/05 22:49:17;;;;;;;31.60;3.70;;;;;;;;;;4912424;29;20606;-88
2022/02/05 22:51:47;;;;;;;27.23;4.30;;;;;;;;;;4913803;29;20060;-89
2022/02/05 22:54:15;;;;;;;23.33;3.70;;;;;;;;;;4896561;29;20049;-89
2022/02/05 22:56:42;;;;;;;26.42;3.45;;;;;;;;;;4917452;29;20497;-89
2022/02/05 22:59:10;;;;;;;25.15;3.38;;;;;;;;;;4915217;29;20048;-89
2022/02/05 23:01:38;;;;;;;39.80;4.32;;;;;;;;;;4923610;29;20095;-90
2022/02/05 23:04:05;;;;;;;33.97;4.10;;;;;;;;;;4930340;29;20052;-89
2022/02/05 23:06:32;;;;;;;40.03;4.03;;;;;;;;;;4915468;29;20060;-90
2022/02/05 23:09:07;;;;;;;26.33;5.13;;;;;;;;;;4907152;29;20059;-88
2022/02/05 23:38:55;;;;;;;31.80;4.43;;;;;;;;;;4920019;29;20052;-88
2022/02/05 23:41:29;;;;;;;24.45;3.97;;;;;;;;;;4920440;29;20168;-86